Time;durP1;ratioP1;P1;durP2;ratioP2;P2;SDS_P1;SDS_P2;PMS_P1;PMS_P2;Temp;Humidity;BMP_temperature;BMP_pressure;BME280_temperature;BME280_humidity;BME280_pressure;Samples;Min_cycle;Max_cycle;Signal;HPM_P1;HPM_P2
2021/11/10 00:01:31;;;;;;;;;72.50;56.25;;;;;7.73;68.07;102227.84;5016571;28;51537;-73
2021/11/10 00:03:56;;;;;;;;;80.25;59.25;;;;;7.71;68.05;102227.78;4998047;28;45539;-74
2021/11/10 00:06:22;;;;;;;;;80.50;59.00;;;;;7.72;68.14;102233.91;4996247;28;63681;-74
2021/11/10 00:08:47;;;;;;;;;78.00;57.50;;;;;7.70;68.12;102230.34;4996458;28;56981;-74
2021/11/10 00:11:13;;;;;;;;;79.50;59.25;;;;;7.69;67.90;102239.06;4997124;28;45422;-74
2021/11/10 00:13:38;;;;;;;;;80.50;59.50;;;;;7.68;68.00;102218.88;5000061;28;52780;-74
2021/11/10 00:16:03;;;;;;;;;73.50;56.75;;;;;7.66;67.95;102212.63;5011123;28;62492;-74
2021/11/10 00:18:29;;;;;;;;;74.50;57.25;;;;;7.63;67.96;102217.75;4996846;28;45188;-73
2021/11/10 00:20:55;;;;;;;;;77.50;57.50;;;;;7.62;68.17;102216.88;5012031;28;45408;-74
2021/11/10 00:23:21;;;;;;;;;73.75;58.25;;;;;7.61;68.21;102207.16;5011041;28;45365;-75
2021/11/10 00:25:46;;;;;;;;;74.50;56.25;;;;;7.61;68.08;102212.41;5011393;28;45703;-73
2021/11/10 00:28:12;;;;;;;;;75.00;56.25;;;;;7.56;68.20;102206.03;4996162;28;57151;-74
2021/11/10 00:30:37;;;;;;;;;73.25;57.75;;;;;7.58;67.97;102201.78;4996627;28;45437;-74
2021/11/10 00:33:02;;;;;;;;;67.50;51.50;;;;;7.57;68.16;102203.50;4997454;28;53480;-73
2021/11/10 00:35:28;;;;;;;;;71.00;56.75;;;;;7.56;68.07;102192.91;4996281;28;55005;-73
2021/11/10 00:37:53;;;;;;;;;71.00;55.25;;;;;7.55;68.11;102181.50;4996274;28;56320;-74
2021/11/10 00:40:18;;;;;;;;;72.00;55.25;;;;;7.53;67.86;102171.75;4995990;28;55847;-75
2021/11/10 00:42:44;;;;;;;;;79.50;55.75;;;;;7.55;68.30;102191.09;4996083;28;45355;-75
2021/11/10 00:45:10;;;;;;;;;78.25;55.75;;;;;7.56;68.32;102198.16;4996257;28;46383;-75
2021/11/10 00:47:35;;;;;;;;;67.75;53.75;;;;;7.56;68.33;102190.28;4998294;28;45420;-74
2021/11/10 00:50:00;;;;;;;;;66.25;51.50;;;;;7.57;68.22;102195.63;5018065;28;45457;-74
2021/11/10 00:52:26;;;;;;;;;62.25;51.50;;;;;7.52;68.14;102189.25;5005485;28;45480;-74
2021/11/10 00:54:51;;;;;;;;;73.75;54.00;;;;;7.56;68.09;102198.16;4999903;28;47463;-74
2021/11/10 00:57:17;;;;;;;;;71.25;53.75;;;;;7.51;68.08;102192.72;4998798;28;45184;-75
2021/11/10 00:59:42;;;;;;;;;67.25;50.50;;;;;7.52;68.04;102193.63;4999549;28;57255;-74
2021/11/10 01:02:08;;;;;;;;;65.50;52.50;;;;;7.45;68.10;102179.28;5000191;28;45509;-74
2021/11/10 01:04:33;;;;;;;;;64.75;50.00;;;;;7.49;67.95;102185.59;5018080;28;45968;-75
2021/11/10 01:06:59;;;;;;;;;67.75;54.25;;;;;7.47;68.03;102179.38;5019603;28;45322;-73
2021/11/10 01:09:24;;;;;;;;;72.75;54.00;;;;;7.44;67.63;102182.75;5019107;28;53026;-73
2021/11/10 01:11:49;;;;;;;;;71.25;53.25;;;;;7.39;67.91;102176.38;5010637;28;53410;-75
2021/11/10 01:14:15;;;;;;;;;68.00;51.25;;;;;7.39;68.13;102152.72;5014452;28;63003;-74
2021/11/10 01:16:41;;;;;;;;;66.75;52.25;;;;;7.41;68.12;102152.81;5009462;28;45492;-75
2021/11/10 01:19:06;;;;;;;;;66.50;51.00;;;;;7.34;67.95;102142.00;4999280;28;50185;-75
2021/11/10 01:21:31;;;;;;;;;72.25;52.00;;;;;7.34;68.13;102138.47;5004520;28;52554;-74
2021/11/10 01:23:57;;;;;;;;;63.50;51.25;;;;;7.38;68.25;102150.94;5018828;28;58697;-73
2021/11/10 01:26:22;;;;;;;;;74.75;54.00;;;;;7.39;68.30;102157.09;5008826;28;45426;-74
2021/11/10 01:28:48;;;;;;;;;64.75;51.25;;;;;7.39;68.10;102152.72;5014872;28;45447;-75
2021/11/10 01:31:13;;;;;;;;;74.75;54.50;;;;;7.38;68.22;102158.81;5016134;28;49335;-74
2021/11/10 01:33:39;;;;;;;;;70.25;54.50;;;;;7.38;68.30;102152.66;5013250;28;46047;-74
2021/11/10 01:36:04;;;;;;;;;67.50;52.00;;;;;7.38;68.38;102166.69;4999620;28;45322;-74
2021/11/10 01:38:29;;;;;;;;;72.00;52.75;;;;;7.37;68.35;102156.13;5008016;28;56476;-74
2021/11/10 01:40:55;;;;;;;;;73.25;53.00;;;;;7.31;68.40;102139.25;5019095;28;50168;-75
2021/11/10 01:43:20;;;;;;;;;72.25;54.50;;;;;7.35;68.34;102143.84;5018660;28;50957;-74
2021/11/10 01:45:46;;;;;;;;;64.75;52.25;;;;;7.30;68.25;102139.19;5016353;28;45250;-75
2021/11/10 01:48:12;;;;;;;;;70.50;53.00;;;;;7.34;68.24;102152.50;5019240;28;45303;-74
2021/11/10 01:50:37;;;;;;;;;67.00;49.75;;;;;7.32;68.44;102143.69;5019059;28;45527;-74
2021/11/10 01:53:02;;;;;;;;;69.75;53.50;;;;;7.28;68.25;102152.25;5001161;28;54564;-73
2021/11/10 01:55:28;;;;;;;;;72.25;52.50;;;;;7.27;68.36;102133.78;4999154;28;45219;-74
2021/11/10 01:57:53;;;;;;;;;67.75;52.25;;;;;7.25;68.22;102149.50;4998570;28;52813;-73
2021/11/10 02:00:25;;;;;;;;;65.25;50.50;;;;;7.25;67.91;102143.34;4996483;28;45407;-74
2021/11/10 02:02:51;;;;;;;;;69.50;51.50;;;;;7.21;68.33;102144.03;4998832;28;46654;-74
2021/11/10 02:05:16;;;;;;;;;71.50;52.00;;;;;7.26;68.27;102156.53;4998995;28;45336;-74
2021/11/10 02:07:43;;;;;;;;;67.75;54.00;;;;;7.24;68.20;102158.19;5000380;28;45534;-73
2021/11/10 02:10:09;;;;;;;;;75.50;54.50;;;;;7.23;68.19;102164.28;4997603;28;45394;-75
2021/11/10 02:12:35;;;;;;;;;74.00;54.00;;;;;7.21;68.25;102155.44;4998630;28;46720;-74
2021/11/10 02:15:00;;;;;;;;;67.50;52.75;;;;;7.19;68.40;102151.84;5010033;28;45287;-74
2021/11/10 02:17:27;;;;;;;;;67.75;53.00;;;;;7.21;68.26;102168.56;5018364;28;45382;-75
2021/11/10 02:19:52;;;;;;;;;68.00;52.25;;;;;7.19;68.23;102164.06;5018616;28;45413;-74
2021/11/10 02:22:19;;;;;;;;;75.75;55.00;;;;;7.18;68.07;102160.53;5012455;28;58596;-75
2021/11/10 02:24:45;;;;;;;;;67.25;50.00;;;;;7.16;68.13;102153.44;5003169;28;45437;-73
2021/11/10 02:27:21;;;;;;;;;73.25;52.00;;;;;7.12;68.00;102138.34;5011266;28;45916;-74
2021/11/10 02:29:47;;;;;;;;;71.25;52.00;;;;;7.08;68.05;102132.97;5018301;28;45195;-75
2021/11/10 02:32:13;;;;;;;;;70.25;53.75;;;;;7.06;68.28;102120.59;5016680;28;47293;-75
2021/11/10 02:34:39;;;;;;;;;65.25;51.50;;;;;7.10;68.13;102130.41;5018259;28;45337;-76
2021/11/10 02:37:06;;;;;;;;;71.00;54.25;;;;;7.07;68.12;102123.28;5016408;28;45278;-73
2021/11/10 02:39:31;;;;;;;;;70.75;53.00;;;;;7.08;68.18;102124.16;4998603;28;45355;-76
2021/11/10 02:41:57;;;;;;;;;64.50;52.25;;;;;7.02;67.87;102105.50;4998177;28;46629;-75
2021/11/10 02:44:22;;;;;;;;;71.75;55.25;;;;;7.05;68.13;102117.06;4998159;28;45284;-74
2021/11/10 02:46:49;;;;;;;;;66.50;51.25;;;;;7.05;68.08;102118.78;4999133;28;53750;-74
2021/11/10 02:49:14;;;;;;;;;67.75;52.00;;;;;7.03;68.10;102116.09;4999419;28;45468;-74
2021/11/10 02:52:09;;;;;;;;;67.50;49.50;;;;;7.02;68.21;102113.38;5008630;28;46467;-75
2021/11/10 02:54:37;;;;;;;;;64.75;51.50;;;;;7.01;68.02;102120.38;4998269;28;45322;-73
2021/11/10 02:57:04;;;;;;;;;68.50;53.00;;;;;7.02;67.99;102123.88;4997250;28;45283;-75
2021/11/10 02:59:30;;;;;;;;;73.75;54.25;;;;;6.99;67.98;102129.91;5010544;28;45622;-73
2021/11/10 03:01:55;;;;;;;;;69.75;52.75;;;;;6.97;68.00;102125.41;5017554;28;46278;-74
2021/11/10 03:04:25;;;;;;;;;66.25;51.00;;;;;6.96;67.86;102107.84;5017811;28;45371;-74
2021/11/10 03:06:51;;;;;;;;;66.75;51.75;;;;;6.90;68.09;102110.19;5017366;28;45426;-75
2021/11/10 03:09:20;;;;;;;;;69.75;50.25;;;;;6.93;67.99;102112.97;4998036;28;45622;-74
2021/11/10 03:11:46;;;;;;;;;64.25;48.75;;;;;6.90;67.91;102103.22;4997344;28;47023;-74
2021/11/10 03:14:12;;;;;;;;;66.25;53.50;;;;;6.89;67.83;102100.53;5005488;28;45412;-74
2021/11/10 03:16:37;;;;;;;;;65.75;48.50;;;;;6.82;67.92;102096.72;5005492;28;45444;-74
2021/11/10 03:19:03;;;;;;;;;67.75;52.00;;;;;6.79;67.96;102080.81;4995140;28;52698;-74
2021/11/10 03:21:28;;;;;;;;;63.50;49.50;;;;;6.87;67.84;102091.66;4995868;28;57123;-74
2021/11/10 03:23:54;;;;;;;;;74.25;52.00;;;;;6.86;67.79;102090.78;4995648;28;58592;-74
2021/11/10 03:26:21;;;;;;;;;68.00;52.25;;;;;6.84;68.06;102097.69;5004147;28;50929;-74
2021/11/10 03:28:47;;;;;;;;;69.50;51.75;;;;;6.85;68.06;102106.47;5011311;28;45191;-74
2021/11/10 03:31:12;;;;;;;;;67.25;51.50;;;;;6.79;68.11;102094.84;5015723;28;45331;-75
2021/11/10 03:33:38;;;;;;;;;67.50;51.00;;;;;6.83;67.99;102099.41;5015352;28;58243;-74
2021/11/10 03:36:03;;;;;;;;;62.50;51.75;;;;;6.82;68.01;102100.25;5008640;28;45506;-74
2021/11/10 03:38:29;;;;;;;;;65.50;49.00;;;;;6.81;68.03;102094.91;4996328;28;50384;-75
2021/11/10 03:40:54;;;;;;;;;65.75;50.25;;;;;6.80;68.01;102093.13;4996061;28;45295;-75
2021/11/10 03:43:20;;;;;;;;;65.50;49.25;;;;;6.75;67.95;102094.63;4995459;28;59536;-74
2021/11/10 03:45:46;;;;;;;;;65.75;48.25;;;;;6.78;67.98;102115.78;5003658;28;45400;-74
2021/11/10 03:48:12;;;;;;;;;65.25;47.00;;;;;6.73;67.91;102099.81;5013341;28;45612;-74
2021/11/10 03:50:38;;;;;;;;;56.00;45.75;;;;;6.79;68.19;102104.44;5015332;28;47488;-74
2021/11/10 03:53:04;;;;;;;;;61.75;46.50;;;;;6.74;68.13;102093.72;5003388;28;45329;-74
2021/11/10 03:55:35;;;;;;;;;65.75;47.75;;;;;6.78;68.20;102098.31;4995824;28;45298;-74
2021/11/10 03:58:00;;;;;;;;;60.75;49.25;;;;;6.77;68.34;102099.13;4996155;28;45553;-73
2021/11/10 04:00:25;;;;;;;;;64.25;47.25;;;;;6.78;68.19;102113.16;4995754;28;47460;-74
2021/11/10 04:02:51;;;;;;;;;69.00;48.75;;;;;6.78;68.20;102107.91;4995243;28;60859;-74
2021/11/10 04:05:16;;;;;;;;;64.00;46.50;;;;;6.72;68.38;102120.75;4995389;28;53283;-73
2021/11/10 04:07:42;;;;;;;;;53.75;47.00;;;;;6.76;68.18;102128.81;5000489;28;49862;-74
2021/11/10 04:10:07;;;;;;;;;62.75;47.00;;;;;6.76;68.25;102130.53;5014392;28;61765;-74
2021/11/10 04:12:33;;;;;;;;;61.25;44.50;;;;;6.75;68.27;102155.91;5015225;28;45386;-74
2021/11/10 04:14:58;;;;;;;;;60.25;47.00;;;;;6.75;68.21;102168.13;5007840;28;54230;-74
2021/11/10 04:17:23;;;;;;;;;62.25;46.25;;;;;6.76;68.27;102186.56;5001485;28;45658;-74
2021/11/10 04:19:49;;;;;;;;;58.25;45.75;;;;;6.76;68.28;102173.44;4959563;28;1174605;-74
2021/11/10 04:22:14;;;;;;;;;56.25;43.00;;;;;6.72;68.29;102168.91;5000163;28;45283;-74
2021/11/10 04:24:39;;;;;;;;;56.00;43.50;;;;;6.77;68.18;102177.00;5001115;28;45653;-75
2021/11/10 04:27:05;;;;;;;;;65.50;44.50;;;;;6.74;68.40;102167.22;5007032;28;50453;-74
2021/11/10 04:29:30;;;;;;;;;53.75;42.50;;;;;6.69;68.17;102165.22;5014942;28;47192;-74
2021/11/10 04:31:56;;;;;;;;;62.00;47.75;;;;;6.73;68.17;102169.78;5019961;28;45342;-73
2021/11/10 04:34:21;;;;;;;;;53.75;43.25;;;;;6.72;68.20;102168.91;5020311;28;45647;-74
2021/11/10 04:36:47;;;;;;;;;61.75;46.75;;;;;6.71;68.29;102155.66;5020455;28;45366;-75
2021/11/10 04:39:12;;;;;;;;;58.00;44.00;;;;;6.70;68.18;102159.13;5002535;28;45667;-74
2021/11/10 04:41:38;;;;;;;;;51.75;40.25;;;;;6.69;68.28;102158.22;5000030;28;53457;-74
2021/11/10 04:44:03;;;;;;;;;54.25;43.50;;;;;6.68;68.19;102143.31;5004216;28;54203;-74
2021/11/10 04:46:33;;;;;;;;;52.75;42.75;;;;;6.66;68.07;102142.34;5017069;28;45572;-75
2021/11/10 04:48:59;;;;;;;;;54.00;42.75;;;;;6.64;68.37;102130.88;5002869;28;46568;-73
2021/11/10 04:51:25;;;;;;;;;58.25;45.25;;;;;6.60;68.33;102142.03;5009891;28;45448;-74
2021/11/10 04:53:51;;;;;;;;;65.75;47.50;;;;;6.64;68.07;102151.88;5019886;28;45516;-74
2021/11/10 04:56:16;;;;;;;;;64.50;46.25;;;;;6.65;68.44;102156.28;5009642;28;45301;-74
2021/11/10 04:58:42;;;;;;;;;55.25;42.25;;;;;6.60;68.23;102149.00;4982153;28;45564;-74
2021/11/10 05:01:26;;;;;;;;;63.00;46.50;;;;;6.62;68.49;102156.16;4998585;28;45325;-74
2021/11/10 05:03:55;;;;;;;;;62.50;43.00;;;;;6.65;68.35;102164.16;5007768;28;45317;-74
2021/11/10 05:06:20;;;;;;;;;55.00;45.00;;;;;6.63;68.24;102163.19;5019801;28;45363;-74
2021/11/10 05:08:47;;;;;;;;;60.50;44.00;;;;;6.56;68.36;102141.00;5011827;28;46417;-74
2021/11/10 05:11:12;;;;;;;;;56.25;43.00;;;;;6.57;68.16;102141.91;5016798;28;45532;-74
2021/11/10 05:13:37;;;;;;;;;58.25;46.00;;;;;6.59;68.01;102131.47;5004468;28;45539;-74
2021/11/10 05:16:03;;;;;;;;;61.25;46.25;;;;;6.58;68.21;102138.44;5019350;28;45287;-75
2021/11/10 05:18:29;;;;;;;;;64.25;47.25;;;;;6.56;68.52;102117.41;5008936;28;45405;-73
2021/11/10 05:20:54;;;;;;;;;61.50;48.25;;;;;6.51;68.36;102108.41;5013283;28;56104;-74
2021/11/10 05:23:20;;;;;;;;;63.00;50.75;;;;;6.55;68.51;102106.81;5018518;28;45302;-75
2021/11/10 05:25:46;;;;;;;;;68.50;50.25;;;;;6.51;68.52;102104.88;5012665;28;45392;-74
2021/11/10 05:28:11;;;;;;;;;67.50;46.75;;;;;6.56;68.54;102121.75;5006356;28;46499;-74
2021/11/10 05:30:37;;;;;;;;;56.00;46.25;;;;;6.52;68.71;102101.44;5016865;28;60040;-75
2021/11/10 05:33:05;;;;;;;;;61.75;49.00;;;;;6.57;68.91;102124.44;5018835;28;45534;-75
2021/11/10 05:35:31;;;;;;;;;60.00;47.75;;;;;6.51;68.90;102102.25;5018497;28;45518;-76
2021/11/10 05:37:56;;;;;;;;;65.00;48.50;;;;;6.57;68.59;102110.41;5011870;28;46426;-76
2021/11/10 05:40:22;;;;;;;;;70.50;49.75;;;;;6.61;68.19;102117.63;5005376;28;56531;-77
2021/11/10 05:42:47;;;;;;;;;64.25;48.50;;;;;6.60;68.77;102110.53;5005095;28;45485;-77
2021/11/10 05:45:12;;;;;;;;;65.25;51.00;;;;;6.62;68.52;102111.53;5007436;28;45223;-78
2021/11/10 05:47:38;;;;;;;;;60.00;45.25;;;;;6.62;68.47;102105.41;5008168;28;59884;-73
2021/11/10 05:50:04;;;;;;;;;64.00;49.25;;;;;6.60;68.44;102104.41;5007394;28;45441;-74
2021/11/10 05:52:30;;;;;;;;;64.75;47.50;;;;;6.56;68.34;102092.88;5008703;28;45429;-76
2021/11/10 05:54:56;;;;;;;;;65.00;49.50;;;;;6.55;68.72;102097.22;5006323;28;45351;-72
2021/11/10 05:57:21;;;;;;;;;63.25;50.25;;;;;6.54;68.42;102077.03;5004064;28;45702;-75
2021/11/10 05:59:47;;;;;;;;;68.00;51.00;;;;;6.54;68.33;102084.00;5008216;28;45206;-75
2021/11/10 06:02:12;;;;;;;;;69.75;48.00;;;;;6.52;68.72;102085.69;5006246;28;45391;-75
2021/11/10 06:04:38;;;;;;;;;65.75;49.25;;;;;6.52;68.97;102097.06;5009055;28;45185;-74
2021/11/10 06:07:07;;;;;;;;;67.25;50.25;;;;;6.54;68.65;102099.75;5006609;28;57273;-74
2021/11/10 06:09:32;;;;;;;;;65.00;51.00;;;;;6.54;68.95;102099.75;5006382;28;45431;-75
2021/11/10 06:11:57;;;;;;;;;60.25;50.25;;;;;6.54;68.85;102105.00;5012096;28;45374;-75
2021/11/10 06:14:23;;;;;;;;;62.25;50.25;;;;;6.48;68.50;102096.84;5007829;28;46662;-77
2021/11/10 06:16:49;;;;;;;;;74.75;49.50;;;;;6.54;68.90;102120.75;5005583;28;46663;-77
2021/11/10 06:19:15;;;;;;;;;62.25;48.50;;;;;6.56;68.84;102141.00;5105255;22;47803;-77
2021/11/10 06:21:40;;;;;;;;;65.25;49.25;;;;;6.54;68.82;102142.66;5003861;28;53974;-77
2021/11/10 06:24:06;;;;;;;;;54.25;44.75;;;;;6.54;68.88;102141.75;5010860;28;45558;-76
2021/11/10 06:26:31;;;;;;;;;57.25;45.00;;;;;6.54;68.59;102147.88;5009539;28;46478;-77
2021/11/10 06:28:56;;;;;;;;;66.50;48.25;;;;;6.53;68.44;102153.06;5012480;28;53741;-77
2021/11/10 06:31:22;;;;;;;;;65.00;47.00;;;;;6.51;68.37;102162.59;5011244;28;51994;-77
2021/11/10 06:33:48;;;;;;;;;56.50;43.00;;;;;6.47;68.41;102165.91;5013727;28;53574;-77
2021/11/10 06:36:14;;;;;;;;;64.50;47.00;;;;;6.48;68.36;102162.44;5007050;28;46693;-75
2021/11/10 06:38:40;;;;;;;;;60.50;44.25;;;;;6.45;68.60;102170.19;5017155;28;45520;-77
2021/11/10 06:41:05;;;;;;;;;60.75;44.50;;;;;6.44;68.30;102173.59;5009406;28;45467;-76
2021/11/10 06:43:31;;;;;;;;;61.75;46.75;;;;;6.43;68.35;102180.56;5009965;28;45559;-76
2021/11/10 06:45:56;;;;;;;;;50.25;42.50;;;;;6.38;68.19;102170.69;5006664;28;46828;-77
2021/11/10 06:48:22;;;;;;;;;61.50;47.75;;;;;6.34;68.25;102171.34;5011216;28;45523;-75
2021/11/10 06:50:48;;;;;;;;;59.50;44.25;;;;;6.38;68.24;102189.03;5009612;28;45506;-76
2021/11/10 06:53:14;;;;;;;;;51.75;42.25;;;;;6.32;68.51;102194.88;5007501;28;45660;-77
2021/11/10 06:55:39;;;;;;;;;56.00;44.00;;;;;6.35;68.25;102217.78;5011201;28;46904;-76
2021/11/10 06:58:05;;;;;;;;;64.75;45.75;;;;;6.34;68.50;102232.63;5008440;28;45875;-76
2021/11/10 07:00:30;;;;;;;;;59.75;47.50;;;;;6.32;68.51;102234.25;5003877;28;45508;-76
2021/11/10 07:02:55;;;;;;;;;65.00;47.25;;;;;6.35;68.40;102236.13;5015171;28;45326;-77
2021/11/10 07:05:21;;;;;;;;;61.00;44.50;;;;;6.32;68.33;102231.63;5011901;28;46298;-77
2021/11/10 07:07:46;;;;;;;;;63.25;45.75;;;;;6.30;68.16;102241.13;5010816;28;45362;-76
2021/11/10 07:10:12;;;;;;;;;54.25;44.25;;;;;6.30;68.08;102243.75;5005690;28;52341;-75
2021/11/10 07:12:37;;;;;;;;;59.00;45.75;;;;;6.26;68.02;102242.69;5007703;28;45576;-77
2021/11/10 07:15:03;;;;;;;;;62.50;47.50;;;;;6.25;67.94;102246.16;5008596;28;49505;-77
2021/11/10 07:17:29;;;;;;;;;53.75;44.25;;;;;6.21;68.32;102225.81;5005575;28;47028;-77
2021/11/10 07:19:54;;;;;;;;;66.50;48.25;;;;;6.24;68.31;102222.47;5013161;28;45306;-76
2021/11/10 07:22:20;;;;;;;;;56.75;42.75;;;;;6.21;68.01;102232.78;5009487;28;45489;-77
2021/11/10 07:24:46;;;;;;;;;62.00;44.75;;;;;6.21;67.96;102225.81;5011008;28;46651;-76
2021/11/10 07:27:12;;;;;;;;;64.75;47.75;;;;;6.22;68.15;102222.38;5011366;28;45437;-76
2021/11/10 07:29:37;;;;;;;;;60.75;45.75;;;;;6.23;68.13;102220.66;5013374;28;45209;-77
2021/11/10 07:32:03;;;;;;;;;61.00;48.00;;;;;6.24;68.35;102222.47;5005147;28;45493;-76
2021/11/10 07:34:28;;;;;;;;;67.00;51.50;;;;;6.24;68.25;102222.47;5004212;28;45397;-77
2021/11/10 07:36:54;;;;;;;;;66.50;51.75;;;;;6.19;68.47;102213.47;5002568;28;45427;-78
2021/11/10 07:39:20;;;;;;;;;66.00;52.75;;;;;6.25;68.40;102237.38;5004435;28;45521;-77
2021/11/10 07:41:47;;;;;;;;;71.00;52.75;;;;;6.26;68.55;102231.31;5011630;28;45539;-75
2021/11/10 07:44:14;;;;;;;;;65.25;52.25;;;;;6.27;68.36;102218.25;5010539;28;48063;-77
2021/11/10 07:46:41;;;;;;;;;82.50;58.00;;;;;6.29;68.35;102210.50;5012007;28;45496;-77
2021/11/10 07:49:06;;;;;;;;;69.00;51.50;;;;;6.30;69.25;102209.66;5012978;28;45331;-78
2021/11/10 07:51:31;;;;;;;;;70.50;54.00;;;;;6.30;69.54;102207.03;5010182;28;58065;-76
2021/11/10 07:53:57;;;;;;;;;66.00;50.00;;;;;6.30;68.92;102201.78;5006222;28;53979;-77
2021/11/10 07:56:22;;;;;;;;;63.75;48.25;;;;;6.39;68.79;102209.19;5014163;28;45328;-77
2021/11/10 07:58:48;;;;;;;;;66.00;53.25;;;;;6.38;68.72;102187.31;5012549;28;45329;-77
2021/11/10 08:01:13;;;;;;;;;68.50;51.50;;;;;6.43;69.00;102204.19;5017946;22;50727;-77
2021/11/10 08:03:38;;;;;;;;;69.50;55.50;;;;;6.45;68.87;102193.78;5011135;28;60269;-77
2021/11/10 08:06:04;;;;;;;;;68.00;53.00;;;;;6.54;68.88;102187.25;5009180;28;60460;-77
2021/11/10 08:08:30;;;;;;;;;73.00;52.00;;;;;6.52;68.92;102181.03;5011379;28;45504;-77
2021/11/10 08:10:59;;;;;;;;;67.50;53.00;;;;;6.59;69.01;102192.72;5004290;28;45705;-77
2021/11/10 08:13:24;;;;;;;;;99.50;73.50;;;;;6.64;68.98;102203.44;5010161;28;46507;-77
2021/11/10 08:15:50;;;;;;;;;78.25;58.25;;;;;6.67;69.14;102203.63;5002292;28;45527;-82
2021/11/10 08:18:16;;;;;;;;;73.00;53.25;;;;;6.71;69.43;102200.28;5012833;28;45264;-76
2021/11/10 08:20:41;;;;;;;;;62.50;53.25;;;;;6.79;69.46;102215.59;5013233;28;45443;-76
2021/11/10 08:23:07;;;;;;;;;68.50;54.25;;;;;6.81;69.20;102220.91;5008434;28;47031;-76
2021/11/10 08:25:33;;;;;;;;;65.75;51.25;;;;;6.88;69.18;102219.50;5005618;28;52889;-76
2021/11/10 08:27:58;;;;;;;;;78.00;55.75;;;;;6.91;69.24;102224.88;5011778;28;45465;-76
2021/11/10 08:30:24;;;;;;;;;74.75;53.75;;;;;6.94;69.25;102219.81;5011200;28;45522;-76
2021/11/10 08:32:50;;;;;;;;;71.50;55.25;;;;;6.94;69.24;102228.56;5004133;28;57456;-75
2021/11/10 08:35:15;;;;;;;;;72.50;55.25;;;;;6.99;69.10;102239.31;5013867;28;45397;-76
2021/11/10 08:37:40;;;;;;;;;72.75;55.75;;;;;7.05;69.47;102252.72;5011746;28;53100;-76
2021/11/10 08:40:08;;;;;;;;;73.00;57.50;;;;;7.09;69.34;102249.44;5010437;28;45510;-75
2021/11/10 08:42:34;;;;;;;;;75.00;57.50;;;;;7.13;69.25;102248.72;5005737;28;47588;-76
2021/11/10 08:45:00;;;;;;;;;76.75;57.00;;;;;7.16;69.60;102243.63;5008320;28;45358;-76
2021/11/10 08:47:26;;;;;;;;;75.50;57.50;;;;;7.19;69.32;102228.03;5010902;28;45577;-76
2021/11/10 08:49:51;;;;;;;;;73.50;55.50;;;;;7.24;69.29;102242.25;5007608;28;45445;-76
2021/11/10 08:52:18;;;;;;;;;73.00;55.50;;;;;7.29;69.55;102238.09;5003843;28;45893;-76
2021/11/10 08:54:43;;;;;;;;;71.50;54.75;;;;;7.33;69.56;102244.41;5006936;28;45503;-76
2021/11/10 08:57:08;;;;;;;;;73.25;57.00;;;;;7.35;69.48;102241.03;5003728;28;45593;-76
2021/11/10 08:59:34;;;;;;;;;72.00;55.00;;;;;7.44;69.70;102244.91;4999048;28;54819;-75
2021/11/10 09:02:01;;;;;;;;;69.00;54.00;;;;;7.47;69.43;102231.94;4993402;28;62503;-77
2021/11/10 09:04:26;;;;;;;;;68.75;51.75;;;;;7.49;69.50;102235.50;5006111;28;46053;-76
2021/11/10 09:06:52;;;;;;;;;77.25;56.50;;;;;7.57;69.44;102237.69;5012441;28;45270;-77
2021/11/10 09:09:17;;;;;;;;;65.50;52.00;;;;;7.55;69.46;102239.31;5015698;28;45360;-76
2021/11/10 09:11:47;;;;;;;;;77.00;56.50;;;;;7.67;69.49;102246.88;5019057;28;46683;-75
2021/11/10 09:14:13;;;;;;;;;64.25;49.50;;;;;7.61;69.40;102231.72;5016597;28;45297;-75
2021/11/10 09:16:38;;;;;;;;;71.25;55.50;;;;;7.69;69.39;102245.22;5004703;28;45484;-76
2021/11/10 09:19:03;;;;;;;;;74.75;59.75;;;;;7.70;69.25;102240.84;4999237;28;59390;-76
2021/11/10 09:21:29;;;;;;;;;76.50;58.75;;;;;7.70;69.37;102235.59;4999480;28;46772;-76
2021/11/10 09:23:54;;;;;;;;;76.25;60.00;;;;;7.73;69.61;102225.22;4999812;28;45323;-76
2021/11/10 09:26:20;;;;;;;;;77.50;58.25;;;;;7.73;69.55;102212.97;5000564;28;45834;-76
2021/11/10 09:28:45;;;;;;;;;71.25;57.75;;;;;7.81;69.65;102208.94;4999752;28;45346;-76
2021/11/10 09:31:11;;;;;;;;;80.50;60.25;;;;;7.85;69.55;102203.00;4999082;28;47382;-74
2021/11/10 09:33:39;;;;;;;;;80.50;61.50;;;;;7.89;69.33;102193.53;4999151;28;55406;-75
2021/11/10 09:36:05;;;;;;;;;79.00;60.75;;;;;7.94;69.71;102193.72;4998321;28;45196;-76
2021/11/10 09:38:30;;;;;;;;;74.00;56.50;;;;;7.98;69.39;102195.63;4999580;28;45553;-75
2021/11/10 09:40:59;;;;;;;;;71.75;57.50;;;;;8.00;69.53;102192.25;4999405;28;47406;-76
2021/11/10 09:43:45;;;;;;;;;74.75;57.50;;;;;8.11;69.40;102204.13;4999321;28;45412;-75
2021/11/10 09:46:12;;;;;;;;;77.00;58.25;;;;;8.16;69.12;102212.22;5007427;28;56270;-76
2021/11/10 09:48:37;;;;;;;;;76.25;57.50;;;;;8.20;69.19;102224.66;5005952;28;46382;-75
2021/11/10 09:51:03;;;;;;;;;75.25;55.50;;;;;8.26;69.27;102218.78;5011948;28;46410;-76
2021/11/10 09:53:28;;;;;;;;;81.00;59.50;;;;;8.26;69.50;102219.69;4999205;28;45460;-75
2021/11/10 09:55:55;;;;;;;;;76.25;58.25;;;;;8.37;69.25;102235.97;4998661;28;56814;-75
2021/11/10 09:58:21;;;;;;;;;77.50;58.25;;;;;8.38;69.29;102232.50;4999310;28;45610;-76
2021/11/10 10:00:49;;;;;;;;;80.00;57.25;;;;;8.46;69.38;102238.06;4999119;28;45778;-75
2021/11/10 10:03:16;;;;;;;;;79.75;58.50;;;;;8.52;69.34;102256.75;4998792;28;45342;-75
2021/11/10 10:05:41;;;;;;;;;71.75;56.00;;;;;8.56;69.28;102256.03;4999200;28;45397;-75
2021/11/10 10:08:07;;;;;;;;;70.25;54.25;;;;;8.60;68.94;102244.81;4998057;28;45273;-75
2021/11/10 10:10:32;;;;;;;;;72.00;55.50;;;;;8.64;69.01;102233.59;4997058;28;64325;-76
2021/11/10 10:12:59;;;;;;;;;70.25;53.75;;;;;8.62;68.94;102230.88;4998716;28;45306;-75
2021/11/10 10:15:26;;;;;;;;;72.75;55.50;;;;;8.70;69.17;102239.09;5007630;28;45214;-76
2021/11/10 10:18:02;;;;;;;;;65.50;51.25;;;;;8.76;69.08;102241.97;5014961;28;45550;-75
2021/11/10 10:20:29;;;;;;;;;65.75;52.00;;;;;8.81;68.83;102245.69;5018207;28;47577;-76
2021/11/10 10:22:57;;;;;;;;;67.25;51.00;;;;;8.87;68.96;102247.69;5017668;28;45294;-76
2021/11/10 10:25:23;;;;;;;;;65.25;51.75;;;;;8.92;68.55;102246.13;5018534;28;45290;-75
2021/11/10 10:27:57;;;;;;;;;71.25;51.25;;;;;8.99;68.63;102249.91;5000701;28;45715;-76
2021/11/10 10:30:30;;;;;;;;;65.00;51.00;;;;;9.03;68.61;102239.56;5006006;28;45485;-76
2021/11/10 10:33:07;;;;;;;;;65.75;52.25;;;;;9.05;68.54;102229.06;5005437;28;45566;-75
2021/11/10 10:35:38;;;;;;;;;65.25;48.75;;;;;9.14;68.64;102242.63;5018527;28;45255;-76
2021/11/10 10:38:05;;;;;;;;;64.50;50.50;;;;;9.20;68.23;102234.94;5017520;28;45485;-76
2021/11/10 10:40:31;;;;;;;;;55.00;43.75;;;;;9.24;68.03;102221.06;5018148;28;46476;-76
2021/11/10 10:42:56;;;;;;;;;48.75;39.75;;;;;9.26;68.15;102211.47;5018289;28;45436;-76
2021/11/10 10:45:57;;;;;;;;;52.00;41.75;;;;;9.34;68.38;102211.78;5018311;28;45406;-75
2021/11/10 10:48:27;;;;;;;;;49.75;42.75;;;;;9.37;68.44;102203.97;4982661;28;45240;-75
2021/11/10 10:51:00;;;;;;;;;57.50;45.00;;;;;9.43;68.08;102210.38;4994186;28;46474;-75
2021/11/10 10:53:33;;;;;;;;;57.50;45.25;;;;;9.50;68.34;102203.59;5010285;28;45480;-76
2021/11/10 10:55:59;;;;;;;;;58.00;44.00;;;;;9.49;68.15;102191.25;4998662;28;45251;-75
2021/11/10 10:58:37;;;;;;;;;50.75;42.00;;;;;9.59;67.53;102197.78;4998414;28;45461;-76
2021/11/10 11:01:20;;;;;;;;;59.00;42.50;;;;;9.57;67.46;102183.63;4997900;28;46174;-75
2021/11/10 11:03:49;;;;;;;;;48.25;40.50;;;;;9.69;67.69;102189.34;5005828;28;45456;-75
2021/11/10 11:06:42;;;;;;;;;54.50;42.50;;;;;9.73;67.88;102185.97;5018074;28;45279;-76
2021/11/10 11:09:20;;;;;;;;;47.25;40.00;;;;;9.79;67.67;102180.91;5016962;28;45476;-76
2021/11/10 11:11:59;;;;;;;;;60.75;43.00;;;;;9.82;67.59;102178.41;5017671;28;47637;-74
2021/11/10 11:17:23;;;;;;;;;53.75;42.00;;;;;9.91;67.60;102180.47;4998247;28;45412;-77